Time;durP1;ratioP1;P1;durP2;ratioP2;P2;SDS_P1;SDS_P2;PMS_P1;PMS_P2;Temp;Humidity;BMP_temperature;BMP_pressure;BME280_temperature;BME280_humidity;BME280_pressure;Samples;Min_cycle;Max_cycle;Signal;HPM_P1;HPM_P2
2021/01/05 00:00:13;;;;;;;7.63;6.15;;;2.30;93.50;;;;;;5011223;28;20038;-83
2021/01/05 00:02:43;;;;;;;6.73;6.03;;;2.30;93.60;;;;;;4995582;28;20129;-83
2021/01/05 00:05:09;;;;;;;7.03;4.88;;;2.30;93.50;;;;;;5003139;28;20149;-83
2021/01/05 00:07:35;;;;;;;9.70;6.25;;;2.30;93.40;;;;;;4996128;28;20044;-83
2021/01/05 00:10:03;;;;;;;7.63;6.22;;;2.30;93.50;;;;;;5003412;28;20042;-82
2021/01/05 00:12:29;;;;;;;6.88;5.60;;;2.30;93.50;;;;;;4996093;28;20054;-83
2021/01/05 00:14:55;;;;;;;7.10;5.70;;;2.30;93.50;;;;;;4986774;28;20133;-82
2021/01/05 00:17:22;;;;;;;8.23;6.13;;;2.30;93.50;;;;;;5008901;28;20042;-82
2021/01/05 00:19:48;;;;;;;8.18;6.78;;;2.30;93.60;;;;;;5003843;28;20054;-82
2021/01/05 00:22:15;;;;;;;7.57;6.80;;;2.30;93.50;;;;;;5012183;28;20054;-83
2021/01/05 00:24:42;;;;;;;5.82;5.28;;;2.30;93.60;;;;;;5003940;28;20057;-84
2021/01/05 00:27:09;;;;;;;6.28;5.68;;;2.30;93.50;;;;;;4994221;28;20065;-84
2021/01/05 00:29:35;;;;;;;6.57;4.80;;;2.30;93.60;;;;;;5011044;28;20050;-83
2021/01/05 00:32:03;;;;;;;6.88;5.68;;;2.30;93.60;;;;;;5008827;28;20129;-85
2021/01/05 00:34:30;;;;;;;7.07;6.32;;;2.20;93.40;;;;;;5004430;28;20462;-83
2021/01/05 00:36:56;;;;;;;6.00;5.32;;;2.30;93.60;;;;;;4993183;28;20041;-83
2021/01/05 00:39:22;;;;;;;6.38;5.53;;;2.20;93.60;;;;;;5008688;28;20045;-83
2021/01/05 00:41:47;;;;;;;6.65;5.65;;;2.30;93.60;;;;;;4999082;28;20038;-83
2021/01/05 00:44:13;;;;;;;8.57;6.25;;;2.30;93.60;;;;;;5006920;28;20042;-83
2021/01/05 00:46:39;;;;;;;8.30;6.30;;;2.30;93.60;;;;;;5001025;28;20041;-84
2021/01/05 00:49:05;;;;;;;8.63;7.20;;;2.30;93.60;;;;;;5009465;28;20057;-84
2021/01/05 00:51:31;;;;;;;7.55;6.30;;;2.30;93.60;;;;;;4983660;28;20128;-84
2021/01/05 00:53:56;;;;;;;7.22;6.53;;;2.30;93.60;;;;;;5012299;28;20103;-84
2021/01/05 00:56:22;;;;;;;7.70;6.45;;;2.30;93.70;;;;;;5002996;28;20040;-84
2021/01/05 00:58:53;;;;;;;7.85;7.05;;;2.30;93.70;;;;;;5020413;28;20045;-84
2021/01/05 01:01:20;;;;;;;7.47;6.03;;;2.30;93.70;;;;;;5011041;28;20034;-84
2021/01/05 01:03:49;;;;;;;7.25;6.55;;;2.30;93.70;;;;;;4977897;28;20610;-82
2021/01/05 01:06:16;;;;;;;8.90;7.90;;;2.30;93.70;;;;;;5009621;28;20065;-84
2021/01/05 01:08:42;;;;;;;9.18;6.28;;;2.30;93.80;;;;;;5004049;28;20057;-82
2021/01/05 01:11:10;;;;;;;7.82;6.60;;;2.30;93.70;;;;;;4987499;28;20042;-82
2021/01/05 01:13:36;;;;;;;8.77;6.70;;;2.30;93.80;;;;;;5014124;28;20048;-82
2021/01/05 01:16:02;;;;;;;7.90;6.10;;;2.30;93.80;;;;;;5001673;28;20037;-82
2021/01/05 01:18:28;;;;;;;9.05;6.88;;;2.30;93.70;;;;;;5000558;28;20045;-84
2021/01/05 01:20:54;;;;;;;9.38;7.43;;;2.30;93.80;;;;;;4998176;28;20038;-84
2021/01/05 01:23:20;;;;;;;9.27;7.13;;;2.30;93.90;;;;;;4987203;28;20045;-84
2021/01/05 01:25:48;;;;;;;7.63;6.80;;;2.30;93.90;;;;;;4986545;28;20491;-84
2021/01/05 01:28:14;;;;;;;10.88;6.72;;;2.30;94.00;;;;;;4986127;28;20069;-84
2021/01/05 01:30:40;;;;;;;5.75;5.15;;;2.30;93.90;;;;;;4991770;28;20467;-85
2021/01/05 01:33:06;;;;;;;8.68;7.57;;;2.30;93.90;;;;;;4987480;28;20049;-84
2021/01/05 01:35:33;;;;;;;8.07;6.40;;;2.30;93.90;;;;;;4993273;28;20053;-84
2021/01/05 01:37:59;;;;;;;6.78;6.10;;;2.30;93.90;;;;;;4982069;28;20042;-84
2021/01/05 01:40:37;;;;;;;8.45;6.45;;;2.30;93.90;;;;;;4974433;28;20041;-84
2021/01/05 01:43:04;;;;;;;6.65;5.97;;;2.30;93.90;;;;;;4982109;28;20138;-84
2021/01/05 01:45:31;;;;;;;7.18;5.80;;;2.30;93.90;;;;;;4986484;28;20062;-84
2021/01/05 01:47:57;;;;;;;7.93;5.88;;;2.30;93.90;;;;;;4965985;28;20097;-84
2021/01/05 01:50:27;;;;;;;9.15;6.93;;;2.30;93.90;;;;;;4990492;28;20051;-84
2021/01/05 01:53:04;;;;;;;11.90;7.30;;;2.30;93.90;;;;;;4984516;28;20080;-84
2021/01/05 01:55:49;;;;;;;9.52;7.18;;;2.30;94.00;;;;;;4992509;28;20038;-84
2021/01/05 01:58:35;;;;;;;6.23;5.60;;;2.30;94.00;;;;;;4980041;28;20125;-83
2021/01/05 02:01:30;;;;;;;6.45;5.78;;;2.30;94.00;;;;;;4984180;28;20121;-83
2021/01/05 02:04:01;;;;;;;6.57;5.63;;;2.30;94.00;;;;;;4980369;28;20042;-84
2021/01/05 02:07:05;;;;;;;7.63;6.93;;;2.30;94.00;;;;;;4991440;28;20051;-84
2021/01/05 02:09:44;;;;;;;7.25;6.53;;;2.30;94.00;;;;;;4925886;29;20060;-84
2021/01/05 02:12:19;;;;;;;6.80;6.13;;;2.30;94.10;;;;;;4932243;29;20051;-84
2021/01/05 02:15:08;;;;;;;5.93;5.35;;;2.20;94.10;;;;;;4927540;29;20453;-84
2021/01/05 02:17:54;;;;;;;7.63;6.85;;;2.30;94.00;;;;;;4937358;29;20040;-83
2021/01/05 02:20:28;;;;;;;7.63;6.82;;;2.30;94.10;;;;;;4927021;28;20055;-84
2021/01/05 02:23:22;;;;;;;7.20;6.38;;;2.30;94.20;;;;;;4933550;29;20505;-84
2021/01/05 02:25:54;;;;;;;7.68;6.90;;;2.30;94.20;;;;;;4943724;28;20087;-84
2021/01/05 02:28:27;;;;;;;7.50;6.75;;;2.30;94.20;;;;;;4957649;28;20472;-83
2021/01/05 02:31:07;;;;;;;7.80;7.00;;;2.30;94.20;;;;;;4931477;28;20151;-83
2021/01/05 02:33:50;;;;;;;7.47;6.78;;;2.30;94.20;;;;;;4955482;28;20133;-83
2021/01/05 02:36:48;;;;;;;9.35;6.55;;;2.30;94.20;;;;;;4949718;28;20047;-83
2021/01/05 02:39:38;;;;;;;7.65;6.50;;;2.30;94.20;;;;;;4953265;28;20563;-83
2021/01/05 02:42:36;;;;;;;6.47;5.72;;;2.30;94.20;;;;;;4954493;28;20055;-83
2021/01/05 02:45:13;;;;;;;6.15;5.55;;;2.30;94.30;;;;;;4889574;29;20067;-82
2021/01/05 02:47:58;;;;;;;6.97;6.38;;;2.30;94.20;;;;;;4882361;29;20139;-84
2021/01/05 02:50:55;;;;;;;7.82;7.07;;;2.30;94.20;;;;;;4892700;29;20070;-84
2021/01/05 02:53:30;;;;;;;8.15;5.97;;;2.40;94.20;;;;;;4898642;29;20057;-83
2021/01/05 02:56:23;;;;;;;7.55;6.38;;;2.30;94.10;;;;;;4892264;29;20097;-84
2021/01/05 02:59:15;;;;;;;7.90;6.40;;;2.30;94.20;;;;;;4901553;29;20394;-84
2021/01/05 03:02:19;;;;;;;6.88;6.22;;;2.40;94.30;;;;;;4889556;29;20072;-84
2021/01/05 03:04:44;;;;;;;7.05;6.07;;;2.30;94.30;;;;;;4885987;29;20053;-83
2021/01/05 03:07:18;;;;;;;7.75;6.68;;;2.30;94.30;;;;;;4890379;29;20063;-84
2021/01/05 03:10:08;;;;;;;7.93;7.13;;;2.30;94.40;;;;;;4894402;29;20083;-84
2021/01/05 03:13:14;;;;;;;5.05;4.55;;;2.40;94.50;;;;;;4888983;29;20120;-84
2021/01/05 03:15:54;;;;;;;9.30;7.55;;;2.30;94.40;;;;;;4893851;29;20552;-83
2021/01/05 03:18:29;;;;;;;8.55;7.72;;;2.30;94.50;;;;;;4901307;29;20056;-84
2021/01/05 03:21:10;;;;;;;9.05;7.78;;;2.30;94.50;;;;;;4902975;29;20091;-83
2021/01/05 03:23:37;;;;;;;9.70;8.35;;;2.40;94.60;;;;;;4938179;29;20051;-84
2021/01/05 03:26:08;;;;;;;9.13;7.85;;;2.30;94.60;;;;;;4932496;29;20078;-84
2021/01/05 03:28:36;;;;;;;9.30;8.23;;;2.40;94.70;;;;;;4932939;29;20062;-83
2021/01/05 03:31:10;;;;;;;8.68;7.47;;;2.30;94.70;;;;;;4944359;28;20137;-82
2021/01/05 03:33:36;;;;;;;9.30;7.65;;;2.30;94.80;;;;;;4913641;29;20082;-81
2021/01/05 03:36:03;;;;;;;9.48;8.57;;;2.30;94.80;;;;;;4940100;28;20500;-82
2021/01/05 03:38:29;;;;;;;9.30;8.18;;;2.30;94.80;;;;;;4924582;29;20110;-81
2021/01/05 03:40:54;;;;;;;11.13;8.73;;;2.30;94.90;;;;;;4943370;28;20073;-82
2021/01/05 03:43:20;;;;;;;11.00;9.63;;;2.40;94.90;;;;;;4916148;29;20055;-82
2021/01/05 03:45:46;;;;;;;11.73;9.35;;;2.40;95.00;;;;;;4924924;29;20123;-82
2021/01/05 03:48:12;;;;;;;13.13;10.70;;;2.30;94.90;;;;;;4927955;29;20123;-82
2021/01/05 03:50:38;;;;;;;12.35;10.85;;;2.40;95.00;;;;;;4945171;28;20563;-82
2021/01/05 03:53:03;;;;;;;15.05;11.20;;;2.40;95.00;;;;;;4982966;28;20463;-82
2021/01/05 03:55:29;;;;;;;13.50;11.27;;;2.40;95.00;;;;;;5012079;28;20128;-82
2021/01/05 03:57:55;;;;;;;13.10;10.98;;;2.40;95.10;;;;;;5005313;28;20552;-82
2021/01/05 04:00:28;;;;;;;13.70;12.10;;;2.40;95.10;;;;;;5012543;28;20061;-82
2021/01/05 04:02:57;;;;;;;14.27;11.85;;;2.40;95.10;;;;;;4985206;28;20487;-82
2021/01/05 04:05:25;;;;;;;14.20;10.43;;;2.40;95.00;;;;;;5009989;28;20046;-82
2021/01/05 04:07:52;;;;;;;11.88;10.02;;;2.50;95.10;;;;;;5007661;28;20045;-82
2021/01/05 04:10:20;;;;;;;13.02;11.02;;;2.50;95.00;;;;;;5009114;28;20038;-82
2021/01/05 04:12:46;;;;;;;13.88;11.30;;;2.50;95.00;;;;;;4986966;28;20123;-82
2021/01/05 04:15:21;;;;;;;13.27;11.43;;;2.50;95.00;;;;;;5000126;28;20121;-82
2021/01/05 04:17:47;;;;;;;12.88;11.45;;;2.60;95.00;;;;;;5012244;28;20046;-83
2021/01/05 04:20:13;;;;;;;13.77;11.15;;;2.60;95.00;;;;;;5005027;28;20042;-83
2021/01/05 04:22:39;;;;;;;15.73;12.20;;;2.60;95.00;;;;;;4991490;28;20574;-82
2021/01/05 04:25:06;;;;;;;16.60;13.68;;;2.60;95.00;;;;;;4986590;28;20050;-82
2021/01/05 04:27:32;;;;;;;15.00;12.48;;;2.60;95.00;;;;;;4995783;28;20487;-82
2021/01/05 04:29:58;;;;;;;17.75;13.00;;;2.70;95.10;;;;;;4990528;28;20048;-82
2021/01/05 04:32:24;;;;;;;14.27;12.65;;;2.60;95.00;;;;;;4993832;28;20045;-82
2021/01/05 04:34:51;;;;;;;18.20;11.45;;;2.60;95.10;;;;;;5006152;28;20042;-82
2021/01/05 04:37:46;;;;;;;14.93;11.45;;;2.60;95.00;;;;;;4984916;28;20453;-83
2021/01/05 04:40:40;;;;;;;17.02;12.02;;;2.60;95.10;;;;;;5000936;28;20045;-82
2021/01/05 04:43:35;;;;;;;19.98;13.18;;;2.70;95.10;;;;;;4985970;28;20046;-82
2021/01/05 04:46:10;;;;;;;;;;;2.60;95.10;;;;;;5004492;28;20108;-82
2021/01/05 04:48:49;;;;;;;16.90;11.48;;;2.70;95.20;;;;;;5003787;28;19921;-82
2021/01/05 04:51:45;;;;;;;13.95;12.25;;;2.60;95.10;;;;;;4974289;28;20410;-83
2021/01/05 04:54:26;;;;;;;15.75;12.95;;;2.70;95.10;;;;;;4988308;28;20462;-83
2021/01/05 04:57:22;;;;;;;14.15;11.55;;;2.70;95.10;;;;;;5003358;28;20092;-82
2021/01/05 05:00:06;;;;;;;15.30;13.63;;;2.70;95.00;;;;;;4988229;28;20038;-82
2021/01/05 05:02:54;;;;;;;15.18;12.30;;;2.70;95.10;;;;;;5009415;28;20084;-82
2021/01/05 05:05:23;;;;;;;12.75;10.95;;;2.70;95.00;;;;;;5007111;28;20081;-82
2021/01/05 05:08:24;;;;;;;14.75;12.85;;;2.70;94.90;;;;;;5014886;28;20041;-82
2021/01/05 05:11:02;;;;;;;15.05;12.38;;;2.80;94.90;;;;;;4965402;28;20060;-82
2021/01/05 05:13:31;;;;;;;16.05;11.90;;;2.80;94.90;;;;;;4987695;28;20157;-83
2021/01/05 05:16:17;;;;;;;13.75;9.93;;;2.70;94.90;;;;;;4988718;28;20056;-83
2021/01/05 05:18:51;;;;;;;11.93;10.23;;;2.80;94.90;;;;;;5011104;28;20045;-83
2021/01/05 05:21:36;;;;;;;13.15;9.95;;;2.70;94.90;;;;;;5007280;28;20486;-82
2021/01/05 05:24:29;;;;;;;11.93;10.65;;;2.70;94.80;;;;;;4980240;28;20075;-82
2021/01/05 05:27:30;;;;;;;13.38;9.55;;;2.70;94.80;;;;;;5000989;28;20088;-82
2021/01/05 05:30:16;;;;;;;11.55;9.43;;;2.70;94.80;;;;;;4968130;28;20727;-82
2021/01/05 05:32:47;;;;;;;;;;;2.70;94.80;;;;;;4959308;28;20137;-82
2021/01/05 05:35:21;;;;;;;9.90;8.45;;;2.70;94.70;;;;;;4970421;28;19929;-82
2021/01/05 05:38:00;;;;;;;9.43;6.32;;;2.70;94.80;;;;;;4964907;28;20482;-82
2021/01/05 05:40:36;;;;;;;12.07;9.07;;;2.70;94.70;;;;;;4965865;28;20051;-82
2021/01/05 05:43:28;;;;;;;9.52;7.18;;;2.70;94.70;;;;;;4960975;28;20626;-82
2021/01/05 05:46:00;;;;;;;8.95;7.85;;;2.80;94.80;;;;;;4963564;28;20050;-82
2021/01/05 05:48:39;;;;;;;10.02;9.02;;;2.70;94.70;;;;;;4959284;28;20124;-82
2021/01/05 05:51:08;;;;;;;10.80;9.70;;;2.80;94.80;;;;;;4966372;28;20066;-82
2021/01/05 05:53:49;;;;;;;10.82;9.63;;;2.80;94.80;;;;;;4961728;28;20157;-82
2021/01/05 05:56:18;;;;;;;11.60;9.35;;;2.80;94.80;;;;;;4957971;28;20134;-82
2021/01/05 05:58:53;;;;;;;12.63;9.48;;;2.80;94.70;;;;;;4959428;28;20169;-82
2021/01/05 06:01:35;;;;;;;11.13;8.85;;;2.80;94.70;;;;;;4964681;28;20407;-82
2021/01/05 06:04:01;;;;;;;11.88;9.55;;;2.80;94.70;;;;;;4959250;28;20042;-82
2021/01/05 06:06:28;;;;;;;12.77;9.95;;;2.80;94.70;;;;;;4975745;28;20054;-82
2021/01/05 06:08:54;;;;;;;10.45;9.38;;;2.80;94.70;;;;;;4978818;28;20053;-83
2021/01/05 06:11:20;;;;;;;12.23;9.63;;;2.80;94.80;;;;;;5009760;28;20121;-83
2021/01/05 06:13:45;;;;;;;13.48;9.73;;;2.80;94.70;;;;;;5002346;28;20114;-83
2021/01/05 06:16:11;;;;;;;10.40;9.35;;;2.80;94.80;;;;;;5010487;28;20034;-83
2021/01/05 06:18:37;;;;;;;17.15;11.30;;;2.80;94.90;;;;;;5002311;28;20048;-83
2021/01/05 06:21:03;;;;;;;11.13;9.93;;;2.70;94.90;;;;;;5014170;28;20037;-83
2021/01/05 06:23:29;;;;;;;12.63;9.65;;;2.80;94.90;;;;;;5008415;28;20538;-82
2021/01/05 06:25:54;;;;;;;12.68;9.80;;;2.80;94.90;;;;;;5012024;28;20101;-84
2021/01/05 06:28:20;;;;;;;12.73;9.80;;;2.80;94.90;;;;;;4986434;28;20054;-83
2021/01/05 06:30:47;;;;;;;9.63;8.43;;;2.80;94.90;;;;;;5009577;28;20065;-83
2021/01/05 06:33:13;;;;;;;11.57;8.55;;;2.70;94.90;;;;;;5010754;28;20030;-84
2021/01/05 06:35:39;;;;;;;9.30;8.40;;;2.80;94.90;;;;;;4987063;28;20501;-83
2021/01/05 06:38:04;;;;;;;10.48;7.43;;;2.80;94.90;;;;;;5015225;28;20045;-83
2021/01/05 06:40:33;;;;;;;9.18;7.53;;;2.80;94.90;;;;;;5003765;28;20042;-83
2021/01/05 06:42:59;;;;;;;12.63;8.38;;;2.80;94.90;;;;;;5012474;28;20125;-83
2021/01/05 06:45:30;;;;;;;10.85;9.02;;;2.80;94.90;;;;;;4989131;28;20486;-83
2021/01/05 06:47:57;;;;;;;8.90;7.03;;;2.80;94.90;;;;;;5011705;28;20035;-83
2021/01/05 06:50:25;;;;;;;11.05;8.48;;;2.80;95.00;;;;;;5005580;28;20049;-84
2021/01/05 06:52:50;;;;;;;12.82;8.75;;;2.80;94.90;;;;;;5016664;28;20410;-83
2021/01/05 06:55:17;;;;;;;10.20;8.52;;;2.80;94.90;;;;;;4989720;28;20046;-83
2021/01/05 06:57:43;;;;;;;11.60;8.10;;;2.80;94.90;;;;;;4996037;28;20054;-85
2021/01/05 07:00:21;;;;;;;8.20;6.95;;;2.80;94.90;;;;;;5002892;28;20096;-85
2021/01/05 07:02:47;;;;;;;10.90;6.43;;;2.80;94.90;;;;;;5013816;28;20042;-85
2021/01/05 07:05:33;;;;;;;7.97;7.18;;;2.80;94.70;;;;;;4989897;28;20138;-83
2021/01/05 07:07:59;;;;;;;6.63;5.20;;;2.80;94.70;;;;;;5000337;28;20069;-83
2021/01/05 07:10:25;;;;;;;7.35;6.15;;;2.80;94.60;;;;;;4992205;28;20088;-83
2021/01/05 07:12:50;;;;;;;10.27;7.70;;;2.80;94.60;;;;;;4991232;28;20050;-83
2021/01/05 07:15:18;;;;;;;8.18;7.35;;;2.80;94.60;;;;;;4990240;28;20060;-83
2021/01/05 07:17:44;;;;;;;10.38;7.53;;;2.90;94.60;;;;;;5021962;28;20077;-83
2021/01/05 07:20:11;;;;;;;7.63;6.57;;;2.90;94.40;;;;;;5021303;28;20034;-82
2021/01/05 07:22:38;;;;;;;8.05;6.68;;;2.90;94.50;;;;;;5010522;28;20046;-82
2021/01/05 07:25:06;;;;;;;7.53;6.68;;;2.90;94.50;;;;;;5020860;28;20113;-82
2021/01/05 07:27:32;;;;;;;9.77;6.85;;;2.90;94.40;;;;;;5028179;28;20048;-82
2021/01/05 07:29:58;;;;;;;7.45;6.65;;;2.90;94.40;;;;;;5010652;28;20149;-82
2021/01/05 07:32:24;;;;;;;7.43;6.32;;;2.90;94.40;;;;;;5000975;28;20065;-82
2021/01/05 07:34:50;;;;;;;10.05;7.65;;;2.90;94.30;;;;;;5020775;28;20128;-83
2021/01/05 07:37:19;;;;;;;8.45;6.53;;;2.90;94.30;;;;;;5007536;28;20046;-83
2021/01/05 07:39:45;;;;;;;6.80;6.13;;;2.90;94.20;;;;;;5008332;28;20082;-83
2021/01/05 07:42:24;;;;;;;7.47;5.85;;;2.90;94.20;;;;;;4987593;28;20053;-83
2021/01/05 07:44:52;;;;;;;8.90;7.10;;;2.90;94.20;;;;;;5016848;28;20048;-83
2021/01/05 07:47:21;;;;;;;8.13;6.75;;;2.90;94.30;;;;;;4991993;28;20058;-83
2021/01/05 07:49:46;;;;;;;8.30;7.13;;;2.90;94.30;;;;;;4990295;28;20062;-83
2021/01/05 07:52:22;;;;;;;7.75;6.65;;;2.90;94.20;;;;;;5008005;28;20057;-83
2021/01/05 07:54:48;;;;;;;9.10;7.32;;;2.90;94.20;;;;;;4990169;28;20081;-83
2021/01/05 07:57:14;;;;;;;7.93;6.05;;;2.90;94.10;;;;;;5005118;28;20087;-83
2021/01/05 07:59:40;;;;;;;6.88;6.22;;;2.90;94.20;;;;;;5011760;28;20041;-83
2021/01/05 08:02:08;;;;;;;7.75;6.65;;;2.90;94.20;;;;;;4989874;28;20438;-83
2021/01/05 08:04:34;;;;;;;8.23;6.07;;;2.90;94.20;;;;;;5007901;28;20083;-83
2021/01/05 08:06:59;;;;;;;8.95;5.93;;;2.90;94.20;;;;;;5014053;28;20042;-83
2021/01/05 08:09:25;;;;;;;6.72;5.85;;;2.90;94.10;;;;;;4988192;28;20046;-83
2021/01/05 08:11:51;;;;;;;6.85;6.15;;;2.90;94.10;;;;;;5000833;28;20042;-83
2021/01/05 08:14:17;;;;;;;6.47;5.82;;;2.90;94.10;;;;;;4988607;28;20193;-83
2021/01/05 08:16:42;;;;;;;7.50;5.97;;;2.90;94.10;;;;;;5022465;28;20045;-83
2021/01/05 08:19:09;;;;;;;6.93;5.45;;;2.90;94.10;;;;;;4993517;28;20061;-81
2021/01/05 08:21:36;;;;;;;8.45;5.43;;;2.90;93.90;;;;;;5003829;28;20064;-82
2021/01/05 08:24:02;;;;;;;6.35;5.60;;;2.90;94.00;;;;;;4997414;28;20050;-82
2021/01/05 08:26:28;;;;;;;6.88;5.82;;;2.90;94.00;;;;;;5022086;28;20045;-82
2021/01/05 08:28:53;;;;;;;5.38;4.72;;;2.90;94.00;;;;;;4991972;28;20435;-82
2021/01/05 08:31:21;;;;;;;6.28;5.32;;;2.90;93.90;;;;;;5021557;28;20442;-84
2021/01/05 08:33:47;;;;;;;5.65;4.45;;;2.90;93.90;;;;;;5007893;28;20142;-82
2021/01/05 08:36:14;;;;;;;6.65;5.30;;;3.00;93.90;;;;;;4993462;28;20062;-83
2021/01/05 08:38:42;;;;;;;7.50;5.82;;;2.90;93.90;;;;;;4997602;28;20508;-81
2021/01/05 08:41:08;;;;;;;5.85;4.43;;;2.90;94.00;;;;;;4994571;28;20122;-83
2021/01/05 08:43:34;;;;;;;6.10;4.47;;;2.90;93.90;;;;;;5016916;28;20057;-82
2021/01/05 08:46:00;;;;;;;6.53;4.75;;;2.90;93.90;;;;;;5008430;28;20833;-82
2021/01/05 08:48:25;;;;;;;5.95;5.03;;;2.90;94.00;;;;;;5022549;28;20065;-82
2021/01/05 08:50:52;;;;;;;5.38;4.88;;;2.90;94.00;;;;;;5027757;28;20088;-82
2021/01/05 08:53:19;;;;;;;6.82;5.05;;;2.90;94.00;;;;;;5019434;28;20069;-83
2021/01/05 08:55:45;;;;;;;6.72;5.65;;;2.90;94.00;;;;;;5013434;28;20042;-82
2021/01/05 08:58:11;;;;;;;6.20;5.28;;;2.90;93.90;;;;;;4988070;28;20046;-81
2021/01/05 09:00:39;;;;;;;7.38;5.53;;;2.90;94.00;;;;;;4995909;28;20038;-82
2021/01/05 09:03:05;;;;;;;6.35;5.45;;;2.90;93.90;;;;;;4993134;28;20060;-84
2021/01/05 09:05:34;;;;;;;8.82;5.85;;;2.90;94.00;;;;;;4988402;28;20081;-83
2021/01/05 09:08:00;;;;;;;6.07;5.45;;;2.90;94.10;;;;;;4990011;28;20058;-83
2021/01/05 09:10:26;;;;;;;6.72;6.03;;;2.90;94.00;;;;;;4987819;28;20441;-82
2021/01/05 09:12:52;;;;;;;6.68;5.65;;;2.80;94.00;;;;;;5001536;28;20521;-83
2021/01/05 09:15:20;;;;;;;7.63;5.82;;;2.80;94.40;;;;;;5021957;28;20725;-83
2021/01/05 09:17:48;;;;;;;9.18;6.68;;;2.80;94.20;;;;;;5017100;28;20041;-83
2021/01/05 09:20:19;;;;;;;8.85;6.22;;;2.80;94.20;;;;;;5014587;28;20042;-83
2021/01/05 09:22:45;;;;;;;7.68;6.00;;;2.80;94.20;;;;;;5005200;28;20038;-83
2021/01/05 09:25:12;;;;;;;9.75;5.70;;;2.80;94.20;;;;;;5011286;28;20046;-84
2021/01/05 09:27:38;;;;;;;8.55;5.93;;;2.80;94.30;;;;;;5016484;28;20038;-83
2021/01/05 09:30:07;;;;;;;8.75;5.65;;;2.80;94.40;;;;;;5026110;28;20064;-83
2021/01/05 09:32:34;;;;;;;9.38;6.25;;;2.80;94.50;;;;;;5010139;28;20042;-83
2021/01/05 09:35:01;;;;;;;6.28;5.60;;;2.80;94.80;;;;;;5006715;28;20461;-83
2021/01/05 09:37:27;;;;;;;6.40;5.47;;;2.80;94.70;;;;;;4998342;28;20050;-84
2021/01/05 09:39:53;;;;;;;10.00;5.22;;;2.80;94.80;;;;;;5017734;28;20065;-84
2021/01/05 09:42:18;;;;;;;8.18;5.63;;;2.80;94.80;;;;;;5010713;28;20042;-83
2021/01/05 09:44:44;;;;;;;10.65;6.30;;;2.70;94.90;;;;;;5019040;28;20039;-84
2021/01/05 09:47:10;;;;;;;7.95;5.55;;;2.70;95.00;;;;;;5002624;28;20615;-82
2021/01/05 09:49:36;;;;;;;7.90;6.95;;;2.60;95.10;;;;;;5006451;28;20474;-83
2021/01/05 09:52:02;;;;;;;10.32;6.72;;;2.70;95.10;;;;;;5020663;28;20069;-84
2021/01/05 09:54:31;;;;;;;7.63;5.75;;;2.70;95.30;;;;;;5024900;28;20085;-83
2021/01/05 09:56:57;;;;;;;9.77;6.93;;;2.70;95.40;;;;;;5023331;28;20116;-83
2021/01/05 09:59:28;;;;;;;11.02;7.22;;;2.70;95.40;;;;;;5018099;28;20046;-82
2021/01/05 10:01:55;;;;;;;9.20;7.00;;;2.70;95.40;;;;;;5005635;28;20060;-82
2021/01/05 10:04:23;;;;;;;10.15;6.95;;;2.70;95.50;;;;;;5014969;28;20053;-83
2021/01/05 10:06:51;;;;;;;10.65;7.07;;;2.70;95.50;;;;;;5021992;28;20041;-82
2021/01/05 10:09:27;;;;;;;13.43;7.88;;;2.70;95.60;;;;;;5009171;28;20077;-83
2021/01/05 10:12:02;;;;;;;9.48;7.15;;;2.70;95.70;;;;;;5002984;28;20046;-83
2021/01/05 10:14:37;;;;;;;12.65;6.85;;;2.80;95.70;;;;;;5007943;28;20041;-83
2021/01/05 10:17:06;;;;;;;12.95;8.18;;;2.80;95.70;;;;;;5001122;28;20058;-81
2021/01/05 10:19:32;;;;;;;13.60;7.90;;;2.80;95.80;;;;;;4995808;28;20068;-81
2021/01/05 10:21:58;;;;;;;12.25;8.07;;;2.80;95.80;;;;;;5002267;28;20355;-82
2021/01/05 10:24:24;;;;;;;8.38;6.78;;;2.80;95.70;;;;;;4988539;28;20050;-82
2021/01/05 10:26:54;;;;;;;11.15;7.70;;;2.90;95.80;;;;;;5008811;28;20034;-81
2021/01/05 10:29:20;;;;;;;12.45;8.35;;;2.80;95.80;;;;;;4985015;28;20055;-81
2021/01/05 10:31:47;;;;;;;14.07;8.20;;;2.80;95.80;;;;;;4987403;28;20476;-82
2021/01/05 10:34:18;;;;;;;11.40;7.72;;;2.90;95.90;;;;;;5002121;28;20046;-81
2021/01/05 10:36:55;;;;;;;10.88;6.38;;;2.90;95.80;;;;;;4988378;28;20482;-83
2021/01/05 10:39:23;;;;;;;16.73;9.52;;;2.90;95.80;;;;;;5002478;28;20049;-82
2021/01/05 10:41:49;;;;;;;12.10;9.02;;;2.90;95.80;;;;;;4989929;28;20054;-82
2021/01/05 10:44:20;;;;;;;16.75;9.20;;;2.90;95.90;;;;;;4997512;28;20049;-82
2021/01/05 10:46:55;;;;;;;13.20;8.77;;;2.90;96.00;;;;;;4984047;28;20082;-81
2021/01/05 10:49:31;;;;;;;12.35;8.63;;;2.90;96.00;;;;;;4983843;28;20306;-82
2021/01/05 10:52:19;;;;;;;14.15;9.45;;;2.90;96.00;;;;;;5008214;28;20170;-82
2021/01/05 10:54:50;;;;;;;14.82;10.40;;;3.00;96.00;;;;;;5007846;28;20581;-81
2021/01/05 10:57:27;;;;;;;14.45;9.45;;;3.00;96.00;;;;;;4988993;28;20061;-82
2021/01/05 11:00:04;;;;;;;15.15;10.02;;;3.00;96.00;;;;;;4995645;28;20100;-82
2021/01/05 11:02:50;;;;;;;14.73;10.30;;;3.00;96.00;;;;;;5009303;28;20080;-81
2021/01/05 11:05:17;;;;;;;17.77;10.60;;;3.10;96.00;;;;;;5003877;28;20098;-82
2021/01/05 11:07:48;;;;;;;15.52;10.68;;;3.00;96.00;;;;;;4990720;28;20042;-82
2021/01/05 11:10:14;;;;;;;17.13;11.68;;;3.10;96.20;;;;;;4980683;28;20149;-82
2021/01/05 11:12:40;;;;;;;16.52;11.82;;;3.10;96.10;;;;;;5007813;28;20244;-82
2021/01/05 11:15:11;;;;;;;15.85;11.00;;;3.20;96.20;;;;;;4986227;28;20050;-82
2021/01/05 11:17:39;;;;;;;18.83;12.00;;;3.20;96.00;;;;;;5005686;28;20064;-82
2021/01/05 11:20:05;;;;;;;18.55;11.73;;;3.30;96.00;;;;;;5005065;28;20034;-82
2021/01/05 11:22:31;;;;;;;17.38;12.13;;;3.20;96.40;;;;;;4981811;28;20046;-82
2021/01/05 11:24:58;;;;;;;19.63;13.25;;;3.30;96.10;;;;;;4987549;28;20084;-84
2021/01/05 11:27:24;;;;;;;17.35;12.15;;;3.40;96.00;;;;;;4986549;28;20058;-83
2021/01/05 11:29:51;;;;;;;19.67;12.48;;;3.40;95.90;;;;;;5025730;28;20077;-83
2021/01/05 11:32:18;;;;;;;16.83;12.98;;;3.30;95.90;;;;;;5020272;28;20046;-84
2021/01/05 11:34:46;;;;;;;17.60;13.32;;;3.30;95.80;;;;;;5014931;28;20065;-83
2021/01/05 11:37:19;;;;;;;19.30;13.32;;;3.40;95.80;;;;;;4988801;28;20069;-83
2021/01/05 11:39:46;;;;;;;17.50;13.05;;;3.40;95.60;;;;;;5018434;28;20044;-83
2021/01/05 11:42:20;;;;;;;17.65;13.15;;;3.40;95.70;;;;;;5014170;28;20038;-83
2021/01/05 11:44:47;;;;;;;16.30;12.23;;;3.40;95.70;;;;;;4985317;28;20386;-83
2021/01/05 11:47:14;;;;;;;16.58;12.50;;;3.40;95.50;;;;;;5009029;28;20048;-83
2021/01/05 11:49:39;;;;;;;18.40;13.45;;;3.40;95.50;;;;;;5013909;28;20046;-83
2021/01/05 11:52:05;;;;;;;17.90;13.18;;;3.40;95.40;;;;;;4998178;28;20054;-83
2021/01/05 11:54:32;;;;;;;16.63;13.15;;;3.40;95.40;;;;;;5012828;28;20046;-83
2021/01/05 11:56:59;;;;;;;19.90;13.63;;;3.50;95.30;;;;;;4997063;28;20203;-83
2021/01/05 11:59:28;;;;;;;17.95;12.45;;;3.50;95.40;;;;;;5010391;28;20121;-84
2021/01/05 12:01:55;;;;;;;19.02;13.23;;;3.50;95.50;;;;;;5001283;28;20095;-83
2021/01/05 12:04:20;;;;;;;18.70;13.82;;;3.50;95.50;;;;;;5005068;28;20479;-83
2021/01/05 12:06:48;;;;;;;16.60;12.95;;;3.50;95.30;;;;;;5017782;28;20224;-82
2021/01/05 12:09:14;;;;;;;15.68;12.35;;;3.50;95.30;;;;;;4992469;28;20037;-83
2021/01/05 12:11:44;;;;;;;15.45;12.25;;;3.60;95.20;;;;;;5019341;28;20497;-83
2021/01/05 12:14:11;;;;;;;17.58;13.00;;;3.50;95.30;;;;;;4997615;28;20053;-83
2021/01/05 12:16:40;;;;;;;16.80;12.43;;;3.60;95.20;;;;;;4992680;28;20050;-84
2021/01/05 12:19:11;;;;;;;14.77;12.15;;;3.60;95.20;;;;;;5001573;28;20092;-83
2021/01/05 12:21:39;;;;;;;16.73;12.57;;;3.60;95.20;;;;;;5022968;28;20034;-82
2021/01/05 12:24:09;;;;;;;16.48;12.55;;;3.60;95.30;;;;;;5018399;28;20474;-82
2021/01/05 12:26:37;;;;;;;15.73;12.93;;;3.60;95.30;;;;;;4994543;28;20041;-82
2021/01/05 12:29:05;;;;;;;17.13;13.50;;;3.60;95.40;;;;;;5021523;28;20073;-83
2021/01/05 12:31:44;;;;;;;16.65;12.27;;;3.60;95.10;;;;;;4964649;28;20054;-82
2021/01/05 12:34:12;;;;;;;16.38;11.50;;;3.60;95.10;;;;;;5020900;28;20046;-82
2021/01/05 12:36:40;;;;;;;14.40;11.32;;;3.60;95.00;;;;;;4990739;28;20466;-82
2021/01/05 12:39:09;;;;;;;15.93;12.63;;;3.60;95.00;;;;;;5007809;28;20404;-83
2021/01/05 12:41:39;;;;;;;12.88;11.43;;;3.60;94.90;;;;;;5017869;28;20038;-83
2021/01/05 12:44:07;;;;;;;15.15;12.48;;;3.60;95.00;;;;;;5015974;28;20109;-81
2021/01/05 12:46:36;;;;;;;15.70;12.95;;;3.60;95.00;;;;;;5010938;28;20038;-83
2021/01/05 12:49:03;;;;;;;14.85;11.88;;;3.60;94.80;;;;;;5004938;28;20049;-83
2021/01/05 12:51:41;;;;;;;13.48;11.82;;;3.60;94.70;;;;;;4997117;28;20058;-82
2021/01/05 12:54:10;;;;;;;15.52;12.43;;;3.60;94.80;;;;;;5006057;28;20047;-84
2021/01/05 12:56:36;;;;;;;16.33;12.82;;;3.60;94.90;;;;;;5005047;28;20050;-84
2021/01/05 12:59:02;;;;;;;12.52;11.23;;;3.60;94.80;;;;;;4990592;28;20050;-83
2021/01/05 13:01:28;;;;;;;14.60;12.48;;;3.60;94.80;;;;;;5013806;28;20042;-83
2021/01/05 13:03:53;;;;;;;14.05;11.80;;;3.70;94.80;;;;;;4998677;28;20045;-83
2021/01/05 13:06:19;;;;;;;14.25;12.05;;;3.70;94.70;;;;;;4994701;28;20034;-83
2021/01/05 13:08:47;;;;;;;15.00;11.95;;;3.60;94.80;;;;;;4977302;28;20050;-83